Time;durP1;ratioP1;P1;durP2;ratioP2;P2;SDS_P1;SDS_P2;PMS_P1;PMS_P2;Temp;Humidity;BMP_temperature;BMP_pressure;BME280_temperature;BME280_humidity;BME280_pressure;Samples;Min_cycle;Max_cycle;Signal;HPM_P1;HPM_P2
2022/09/09 00:00:24;;;;;;;;;;;20.50;99.90;;;;;;4591102;19;20240;-25
2022/09/09 00:02:24;;;;;;;;;;;20.50;99.90;;;;;;4590873;19;19915;-26
2022/09/09 00:04:01;;;;;;;;;;;20.50;99.90;;;;;;4590078;19;19953;-26
2022/09/09 00:05:36;;;;;;;;;;;20.50;99.90;;;;;;4590271;19;19918;-25
2022/09/09 00:07:28;;;;;;;;;;;20.50;99.90;;;;;;4590804;19;20002;-26
2022/09/09 00:09:10;;;;;;;;;;;20.50;99.90;;;;;;4592285;19;19923;-27
2022/09/09 00:10:41;;;;;;;;;;;20.40;99.90;;;;;;4592672;19;19927;-26
2022/09/09 00:12:24;;;;;;;;;;;20.30;99.90;;;;;;4592421;19;19926;-25
2022/09/09 00:13:56;;;;;;;;;;;20.30;99.90;;;;;;4592796;19;19923;-25
2022/09/09 00:15:35;;;;;;;;;;;20.30;99.90;;;;;;4592461;19;19911;-25
2022/09/09 00:17:13;;;;;;;;;;;20.30;99.90;;;;;;4592803;19;19954;-26
2022/09/09 00:19:03;;;;;;;;;;;20.30;99.90;;;;;;4593113;19;20031;-27
2022/09/09 00:20:55;;;;;;;;;;;20.30;99.90;;;;;;4592260;19;19922;-26
2022/09/09 00:22:27;;;;;;;;;;;20.30;99.90;;;;;;4592255;19;20349;-26
2022/09/09 00:24:02;;;;;;;;;;;20.20;99.90;;;;;;4590958;19;19910;-26
2022/09/09 00:25:52;;;;;;;;;;;20.20;99.90;;;;;;4591927;19;19922;-25
2022/09/09 00:27:46;;;;;;;;;;;20.30;99.90;;;;;;4590557;19;20313;-25
2022/09/09 00:29:19;;;;;;;;;;;20.30;99.90;;;;;;4590806;19;19929;-27
2022/09/09 00:30:50;;;;;;;;;;;20.30;99.90;;;;;;4589999;19;19974;-25
2022/09/09 00:32:22;;;;;;;;;;;20.30;99.90;;;;;;4590143;19;19915;-27
2022/09/09 00:34:11;;;;;;;;;;;20.20;99.90;;;;;;4590054;19;19918;-26
2022/09/09 00:35:53;;;;;;;;;;;20.20;99.90;;;;;;4590349;19;19918;-25
2022/09/09 00:37:25;;;;;;;;;;;20.20;99.90;;;;;;4590411;19;19923;-26
2022/09/09 00:38:58;;;;;;;;;;;20.20;99.90;;;;;;4590614;19;20412;-27
2022/09/09 00:40:45;;;;;;;;;;;20.20;99.90;;;;;;4591093;19;19914;-25
2022/09/09 00:42:58;;;;;;;;;;;20.20;99.90;;;;;;4592392;19;19914;-26
2022/09/09 00:44:55;;;;;;;;;;;20.20;99.90;;;;;;4590353;19;19925;-27
2022/09/09 00:46:52;;;;;;;;;;;20.20;99.90;;;;;;4590605;19;19920;-24
2022/09/09 00:48:56;;;;;;;;;;;20.20;99.90;;;;;;4591352;19;19921;-26
2022/09/09 00:50:55;;;;;;;;;;;20.20;99.90;;;;;;4588133;19;19939;-27
2022/09/09 00:52:33;;;;;;;;;;;20.20;99.90;;;;;;4589718;19;20435;-26
2022/09/09 00:54:27;;;;;;;;;;;20.20;99.90;;;;;;4589770;19;19914;-25
2022/09/09 00:56:16;;;;;;;;;;;20.10;99.90;;;;;;4589258;19;19919;-25
2022/09/09 00:57:51;;;;;;;;;;;20.10;99.90;;;;;;4589539;19;19923;-28
2022/09/09 00:59:27;;;;;;;;;;;20.20;99.90;;;;;;4589462;19;19911;-26
2022/09/09 01:01:08;;;;;;;;;;;20.20;99.90;;;;;;4589376;19;19927;-25
2022/09/09 01:02:44;;;;;;;;;;;20.10;99.90;;;;;;4590064;19;19919;-26
2022/09/09 01:04:20;;;;;;;;;;;20.10;99.90;;;;;;4588596;19;19936;-26
2022/09/09 01:05:59;;;;;;;;;;;20.10;99.90;;;;;;4589213;19;19922;-25
2022/09/09 01:07:45;;;;;;;;;;;20.10;99.90;;;;;;4589106;19;19915;-26
2022/09/09 01:09:26;;;;;;;;;;;20.10;99.90;;;;;;4589564;19;19922;-27
2022/09/09 01:11:04;;;;;;;;;;;20.20;99.90;;;;;;4589311;19;19925;-26
2022/09/09 01:12:45;;;;;;;;;;;20.20;99.90;;;;;;4589018;19;19947;-27
2022/09/09 01:14:25;;;;;;;;;;;20.10;99.90;;;;;;4589539;19;20369;-26
2022/09/09 01:16:11;;;;;;;;;;;20.20;99.90;;;;;;4588778;19;19958;-25
2022/09/09 01:18:24;;;;;;;;;;;20.10;99.90;;;;;;4589119;19;19946;-26
2022/09/09 01:20:17;;;;;;;;;;;20.10;99.90;;;;;;4588954;19;19915;-24
2022/09/09 01:21:55;;;;;;;;;;;20.10;99.90;;;;;;4588983;19;19978;-26
2022/09/09 01:23:35;;;;;;;;;;;20.20;99.90;;;;;;4589018;19;19974;-25
2022/09/09 01:25:21;;;;;;;;;;;20.20;99.90;;;;;;4588433;19;19922;-25
2022/09/09 01:26:59;;;;;;;;;;;20.20;99.90;;;;;;4588856;19;19923;-26
2022/09/09 01:28:35;;;;;;;;;;;20.10;99.90;;;;;;4589298;19;19923;-25
2022/09/09 01:30:22;;;;;;;;;;;20.20;99.90;;;;;;4588531;19;19923;-26
2022/09/09 01:31:55;;;;;;;;;;;20.10;99.90;;;;;;4589511;19;19927;-25
2022/09/09 01:33:46;;;;;;;;;;;20.10;99.90;;;;;;4588708;19;20242;-25
2022/09/09 01:35:37;;;;;;;;;;;20.10;99.90;;;;;;4588777;19;20333;-27
2022/09/09 01:37:26;;;;;;;;;;;20.10;99.90;;;;;;4588121;19;19915;-28
2022/09/09 01:38:57;;;;;;;;;;;20.10;99.90;;;;;;4588208;19;19919;-26
2022/09/09 01:40:29;;;;;;;;;;;20.10;99.90;;;;;;4588699;19;19966;-25
2022/09/09 01:42:03;;;;;;;;;;;20.10;99.90;;;;;;4588907;19;19915;-26
2022/09/09 01:43:40;;;;;;;;;;;20.10;99.90;;;;;;4588098;19;19918;-26
2022/09/09 01:45:12;;;;;;;;;;;20.10;99.90;;;;;;4588410;19;19911;-25
2022/09/09 01:46:46;;;;;;;;;;;20.20;99.90;;;;;;4588380;19;19939;-26
2022/09/09 01:48:21;;;;;;;;;;;20.20;99.90;;;;;;4589463;19;20313;-25
2022/09/09 01:50:13;;;;;;;;;;;20.10;99.90;;;;;;4587271;19;19978;-26
2022/09/09 01:51:57;;;;;;;;;;;20.20;99.90;;;;;;4590770;19;19919;-25
2022/09/09 01:53:47;;;;;;;;;;;20.20;99.90;;;;;;4588294;19;19929;-28
2022/09/09 01:55:57;;;;;;;;;;;20.20;99.90;;;;;;4588288;19;19918;-27
2022/09/09 01:57:39;;;;;;;;;;;20.20;99.90;;;;;;4588204;19;20334;-26
2022/09/09 01:59:38;;;;;;;;;;;20.10;99.90;;;;;;4587962;19;20016;-26
2022/09/09 02:01:24;;;;;;;;;;;20.10;99.90;;;;;;4588379;19;20358;-25
2022/09/09 02:03:28;;;;;;;;;;;20.10;99.90;;;;;;4588813;19;20361;-26
2022/09/09 02:05:14;;;;;;;;;;;20.10;99.90;;;;;;4590939;19;19997;-25
2022/09/09 02:06:46;;;;;;;;;;;20.10;99.90;;;;;;4588009;19;19918;-26
2022/09/09 02:08:30;;;;;;;;;;;20.10;99.90;;;;;;4588196;19;19944;-25
2022/09/09 02:10:42;;;;;;;;;;;20.10;99.90;;;;;;4587476;19;19939;-26
2022/09/09 02:12:45;;;;;;;;;;;20.20;99.90;;;;;;4588209;19;19930;-26
2022/09/09 02:15:02;;;;;;;;;;;20.10;99.90;;;;;;4587334;19;20031;-26
2022/09/09 02:17:00;;;;;;;;;;;20.20;99.90;;;;;;4587936;19;19910;-29
2022/09/09 02:18:49;;;;;;;;;;;20.20;99.90;;;;;;4587859;19;19994;-25
2022/09/09 02:20:36;;;;;;;;;;;20.20;99.90;;;;;;4587968;19;19923;-27
2022/09/09 02:22:25;;;;;;;;;;;20.20;99.90;;;;;;4587642;19;19915;-28
2022/09/09 02:24:10;;;;;;;;;;;20.20;99.90;;;;;;4587077;19;20345;-26
2022/09/09 02:25:51;;;;;;;;;;;20.20;99.90;;;;;;4588000;19;19919;-25
2022/09/09 02:27:45;;;;;;;;;;;20.20;99.90;;;;;;4587771;19;19910;-28
2022/09/09 02:29:33;;;;;;;;;;;20.20;99.90;;;;;;4587630;19;19948;-28
2022/09/09 02:31:06;;;;;;;;;;;20.20;99.90;;;;;;4587642;19;20387;-25
2022/09/09 02:33:07;;;;;;;;;;;20.10;99.90;;;;;;4587512;19;19915;-25
2022/09/09 02:35:18;;;;;;;;;;;20.10;99.90;;;;;;4590329;19;19978;-26
2022/09/09 02:37:37;;;;;;;;;;;20.10;99.90;;;;;;4589859;19;19944;-27
2022/09/09 02:39:58;;;;;;;;;;;20.10;99.90;;;;;;4589460;19;19945;-25
2022/09/09 02:41:55;;;;;;;;;;;20.10;99.90;;;;;;4591700;19;19918;-28
2022/09/09 02:43:35;;;;;;;;;;;20.20;99.90;;;;;;4592120;19;20309;-26
2022/09/09 02:45:11;;;;;;;;;;;20.20;99.90;;;;;;4592271;19;19925;-25
2022/09/09 02:46:49;;;;;;;;;;;20.20;99.90;;;;;;4592450;19;19922;-25
2022/09/09 02:48:30;;;;;;;;;;;20.20;99.90;;;;;;4592005;19;19945;-25
2022/09/09 02:50:31;;;;;;;;;;;20.20;99.90;;;;;;4589830;19;19926;-26
2022/09/09 02:52:19;;;;;;;;;;;20.20;99.90;;;;;;4591764;19;19937;-25
2022/09/09 02:54:17;;;;;;;;;;;20.20;99.90;;;;;;4592087;19;19978;-27
2022/09/09 02:55:55;;;;;;;;;;;20.10;99.90;;;;;;4591948;19;19950;-25
2022/09/09 02:57:38;;;;;;;;;;;20.20;99.90;;;;;;4592191;19;19923;-27
2022/09/09 02:59:25;;;;;;;;;;;20.20;99.90;;;;;;4591786;19;20365;-26
2022/09/09 03:00:58;;;;;;;;;;;20.20;99.90;;;;;;4591433;19;20002;-25
2022/09/09 03:02:54;;;;;;;;;;;20.20;99.90;;;;;;4591801;19;20007;-26
2022/09/09 03:04:38;;;;;;;;;;;20.20;99.90;;;;;;4590445;19;19914;-25
2022/09/09 03:06:49;;;;;;;;;;;20.20;99.90;;;;;;4591276;19;19907;-25
2022/09/09 03:08:37;;;;;;;;;;;20.20;99.90;;;;;;4591449;19;20290;-26
2022/09/09 03:10:21;;;;;;;;;;;20.20;99.90;;;;;;4591557;19;19915;-26
2022/09/09 03:11:56;;;;;;;;;;;20.20;99.90;;;;;;4592321;19;19919;-27
2022/09/09 03:13:30;;;;;;;;;;;20.20;99.90;;;;;;4591531;19;20381;-27
2022/09/09 03:15:08;;;;;;;;;;;20.20;99.90;;;;;;4591390;19;19915;-26
2022/09/09 03:16:40;;;;;;;;;;;20.10;99.90;;;;;;4591167;19;19919;-26
2022/09/09 03:18:29;;;;;;;;;;;20.20;99.90;;;;;;4592067;19;19931;-28
2022/09/09 03:20:05;;;;;;;;;;;20.20;99.90;;;;;;4591740;19;19935;-25
2022/09/09 03:21:37;;;;;;;;;;;20.20;99.90;;;;;;4590803;19;19915;-26
2022/09/09 03:23:09;;;;;;;;;;;20.20;99.90;;;;;;4591230;19;19915;-25
2022/09/09 03:24:51;;;;;;;;;;;20.20;99.90;;;;;;4590121;19;19923;-26
2022/09/09 03:26:33;;;;;;;;;;;20.10;99.90;;;;;;4591616;19;20265;-25
2022/09/09 03:28:05;;;;;;;;;;;20.10;99.90;;;;;;4591465;19;19985;-25
2022/09/09 03:29:38;;;;;;;;;;;20.20;99.90;;;;;;4591328;19;19922;-26
2022/09/09 03:31:11;;;;;;;;;;;20.20;99.90;;;;;;4591330;19;19914;-25
2022/09/09 03:32:47;;;;;;;;;;;20.20;99.90;;;;;;4592025;19;19982;-26
2022/09/09 03:34:25;;;;;;;;;;;20.20;99.90;;;;;;4591121;19;19915;-25
2022/09/09 03:36:08;;;;;;;;;;;20.20;99.90;;;;;;4591257;19;19922;-25
2022/09/09 03:37:42;;;;;;;;;;;20.20;99.90;;;;;;4591116;19;20353;-25
2022/09/09 03:39:14;;;;;;;;;;;20.20;99.90;;;;;;4591152;19;19939;-25
2022/09/09 03:41:01;;;;;;;;;;;20.20;99.90;;;;;;4591068;19;19918;-27
2022/09/09 03:42:49;;;;;;;;;;;20.20;99.90;;;;;;4590841;19;19918;-26
2022/09/09 03:44:33;;;;;;;;;;;20.10;99.90;;;;;;4589074;19;20330;-26
2022/09/09 03:46:08;;;;;;;;;;;20.20;99.90;;;;;;4591035;19;20051;-25
2022/09/09 03:47:42;;;;;;;;;;;20.20;99.90;;;;;;4590660;19;19915;-25
2022/09/09 03:49:16;;;;;;;;;;;20.20;99.90;;;;;;4591282;19;19933;-26
2022/09/09 03:50:50;;;;;;;;;;;20.20;99.90;;;;;;4588396;19;19952;-26
2022/09/09 03:52:24;;;;;;;;;;;20.20;99.90;;;;;;4590693;19;19934;-26
2022/09/09 03:54:08;;;;;;;;;;;20.20;99.90;;;;;;4590960;19;20274;-25
2022/09/09 03:55:55;;;;;;;;;;;20.20;99.90;;;;;;4591614;19;19919;-26
2022/09/09 03:57:31;;;;;;;;;;;20.10;99.90;;;;;;4591041;19;19926;-25
2022/09/09 03:59:03;;;;;;;;;;;20.20;99.90;;;;;;4590504;19;19943;-26
2022/09/09 04:00:42;;;;;;;;;;;20.20;99.90;;;;;;4591346;19;20324;-27
2022/09/09 04:02:19;;;;;;;;;;;20.20;99.90;;;;;;4590567;19;19923;-28
2022/09/09 04:03:59;;;;;;;;;;;20.20;99.90;;;;;;4590297;19;19933;-26
2022/09/09 04:05:34;;;;;;;;;;;20.20;99.90;;;;;;4590543;19;20302;-25
2022/09/09 04:07:07;;;;;;;;;;;20.20;99.90;;;;;;4590346;19;20271;-25
2022/09/09 04:08:56;;;;;;;;;;;20.20;99.90;;;;;;4590624;19;19922;-25
2022/09/09 04:10:31;;;;;;;;;;;20.20;99.90;;;;;;4591036;19;20037;-26
2022/09/09 04:12:08;;;;;;;;;;;20.20;99.90;;;;;;4591884;19;20262;-26
2022/09/09 04:13:45;;;;;;;;;;;20.20;99.90;;;;;;4594852;19;19935;-27
2022/09/09 04:15:39;;;;;;;;;;;;;;;;;;;;;
2022/09/09 04:17:17;;;;;;;;;;;20.20;99.90;;;;;;4592517;19;19929;-26
2022/09/09 04:18:52;;;;;;;;;;;20.20;99.90;;;;;;4591289;19;19914;-25
2022/09/09 04:20:25;;;;;;;;;;;20.20;99.90;;;;;;4591983;19;20271;-27
2022/09/09 04:22:01;;;;;;;;;;;20.20;99.90;;;;;;4591104;19;19914;-26
2022/09/09 04:54:37;;;;;;;;;;;20.20;99.90;;;;;;4591302;19;19919;-28
2022/09/09 04:56:11;;;;;;;;;;;20.20;99.90;;;;;;4592257;19;19960;-28
2022/09/09 04:57:48;;;;;;;;;;;20.20;99.90;;;;;;4590446;19;20392;-25
2022/09/09 04:59:19;;;;;;;;;;;20.20;99.90;;;;;;4591214;19;19919;-24
2022/09/09 05:00:53;;;;;;;;;;;20.20;99.90;;;;;;4591892;19;19935;-25
2022/09/09 05:02:27;;;;;;;;;;;20.20;99.90;;;;;;4591838;19;19919;-26
2022/09/09 05:03:59;;;;;;;;;;;20.20;99.90;;;;;;4591299;19;19915;-26
2022/09/09 05:05:34;;;;;;;;;;;20.20;99.90;;;;;;4589880;19;19979;-25
2022/09/09 05:07:15;;;;;;;;;;;20.20;99.90;;;;;;4591261;19;19918;-25
2022/09/09 05:08:52;;;;;;;;;;;20.20;99.90;;;;;;4590860;19;20013;-26
2022/09/09 05:10:31;;;;;;;;;;;20.20;99.90;;;;;;4591792;19;19923;-25
2022/09/09 05:12:04;;;;;;;;;;;20.20;99.90;;;;;;4590306;19;20351;-27
2022/09/09 05:13:36;;;;;;;;;;;20.20;99.90;;;;;;4591265;19;19985;-25
2022/09/09 05:15:10;;;;;;;;;;;20.20;99.90;;;;;;4590528;19;19911;-25
2022/09/09 05:16:57;;;;;;;;;;;20.20;99.90;;;;;;4590645;19;19921;-26
2022/09/09 05:18:45;;;;;;;;;;;20.20;99.90;;;;;;4590444;19;20344;-25
2022/09/09 05:20:36;;;;;;;;;;;20.20;99.90;;;;;;4591314;19;19950;-26
2022/09/09 05:22:08;;;;;;;;;;;20.20;99.90;;;;;;4590193;19;19915;-26
2022/09/09 05:23:44;;;;;;;;;;;20.20;99.90;;;;;;4589957;19;19990;-25
2022/09/09 05:25:33;;;;;;;;;;;20.20;99.90;;;;;;4590711;19;19942;-25
2022/09/09 05:27:05;;;;;;;;;;;20.20;99.90;;;;;;4590289;19;19923;-26
2022/09/09 05:28:40;;;;;;;;;;;20.20;99.90;;;;;;4589502;19;19942;-27
2022/09/09 05:30:13;;;;;;;;;;;20.20;99.90;;;;;;4590603;19;19915;-24
2022/09/09 05:31:49;;;;;;;;;;;20.20;99.90;;;;;;4591357;19;19918;-24
2022/09/09 05:33:25;;;;;;;;;;;20.20;99.90;;;;;;4590103;19;19919;-25
2022/09/09 05:34:58;;;;;;;;;;;20.20;99.90;;;;;;4590667;19;19915;-25
2022/09/09 05:36:29;;;;;;;;;;;20.20;99.90;;;;;;4590950;19;19923;-23
2022/09/09 05:38:05;;;;;;;;;;;20.20;99.90;;;;;;4591066;19;19922;-24
2022/09/09 05:39:41;;;;;;;;;;;20.20;99.90;;;;;;4590213;19;19986;-26
2022/09/09 05:41:19;;;;;;;;;;;20.20;99.90;;;;;;4590074;19;19994;-23
2022/09/09 05:44:54;;;;;;;;;;;20.30;99.90;;;;;;4590498;19;19919;-27
2022/09/09 05:46:28;;;;;;;;;;;20.20;99.90;;;;;;4591718;19;19950;-25
2022/09/09 05:48:02;;;;;;;;;;;20.30;99.90;;;;;;4590614;19;19978;-27
2022/09/09 05:49:35;;;;;;;;;;;20.30;99.90;;;;;;4590056;19;19927;-27
2022/09/09 05:51:09;;;;;;;;;;;20.30;99.90;;;;;;4589469;19;19915;-26
2022/09/09 05:52:44;;;;;;;;;;;20.30;99.90;;;;;;4590037;19;19990;-25
2022/09/09 05:54:23;;;;;;;;;;;20.30;99.90;;;;;;4589853;19;19923;-25
2022/09/09 05:58:01;;;;;;;;;;;20.30;99.90;;;;;;4590348;19;19939;-25
2022/09/09 05:59:33;;;;;;;;;;;20.30;99.90;;;;;;4589072;19;20264;-25
2022/09/09 06:01:32;;;;;;;;;;;20.30;99.90;;;;;;4589217;19;20395;-25
2022/09/09 06:09:20;;;;;;;;;;;20.50;99.90;;;;;;4588414;19;19923;-26
2022/09/09 06:10:52;;;;;;;;;;;20.50;99.90;;;;;;4591405;19;19922;-27
2022/09/09 06:24:20;;;;;;;;;;;20.60;99.90;;;;;;4589894;19;19930;-25
2022/09/09 06:25:51;;;;;;;;;;;20.60;99.90;;;;;;4590118;19;19946;-25
2022/09/09 06:27:24;;;;;;;;;;;19.30;99.90;;;;;;4588015;19;19948;-24
2022/09/09 06:28:57;;;;;;;;;;;17.90;99.90;;;;;;4587011;19;19918;-25
2022/09/09 06:30:36;;;;;;;;;;;17.40;99.90;;;;;;4590566;19;19923;-23
2022/09/09 06:32:09;;;;;;;;;;;17.20;99.90;;;;;;4588461;19;19936;-24
2022/09/09 06:33:43;;;;;;;;;;;17.10;99.90;;;;;;4589867;19;19914;-24
2022/09/09 06:35:16;;;;;;;;;;;17.00;99.90;;;;;;4590002;19;19922;-24
2022/09/09 06:36:57;;;;;;;;;;;17.00;99.90;;;;;;4588596;19;19915;-26
2022/09/09 06:38:46;;;;;;;;;;;17.00;99.90;;;;;;4589750;19;19932;-24
2022/09/09 06:47:28;;;;;;;;;;;16.90;99.90;;;;;;4588799;19;19940;-25
2022/09/09 06:49:02;;;;;;;;;;;16.80;99.90;;;;;;4589525;19;19919;-24
2022/09/09 06:50:34;;;;;;;;;;;16.90;99.90;;;;;;4590272;19;19919;-27
2022/09/09 06:52:10;;;;;;;;;;;16.80;99.90;;;;;;4588459;19;19915;-25
2022/09/09 07:05:40;;;;;;;;;;;16.90;99.90;;;;;;4589161;19;19928;-23
2022/09/09 07:07:30;;;;;;;;;;;16.80;99.90;;;;;;4587957;19;19919;-24
2022/09/09 07:09:03;;;;;;;;;;;16.80;99.90;;;;;;4588843;19;20332;-26
2022/09/09 07:10:35;;;;;;;;;;;16.80;99.90;;;;;;4588547;19;19921;-25
2022/09/09 07:12:06;;;;;;;;;;;16.80;99.90;;;;;;4589309;19;20317;-25
2022/09/09 07:13:37;;;;;;;;;;;16.80;99.90;;;;;;4589871;19;19930;-24
2022/09/09 07:15:09;;;;;;;;;;;16.80;99.90;;;;;;4589368;19;19927;-27
2022/09/09 07:16:41;;;;;;;;;;;16.80;99.90;;;;;;4589577;19;19923;-25
2022/09/09 07:18:12;;;;;;;;;;;16.80;99.90;;;;;;4589421;19;19950;-27
2022/09/09 07:19:44;;;;;;;;;;;16.80;99.90;;;;;;4591445;19;19926;-25
2022/09/09 07:21:15;;;;;;;;;;;16.90;99.90;;;;;;4594024;19;19921;-27
2022/09/09 07:22:46;;;;;;;;;;;16.80;99.90;;;;;;4592499;19;19969;-25
2022/09/09 07:24:18;;;;;;;;;;;16.80;99.90;;;;;;4594085;19;20313;-25
2022/09/09 07:25:52;;;;;;;;;;;16.80;99.90;;;;;;4595493;19;19922;-25
2022/09/09 07:27:28;;;;;;;;;;;16.90;99.90;;;;;;4594387;19;19923;-28
2022/09/09 07:29:00;;;;;;;;;;;16.80;99.90;;;;;;4593164;19;19978;-25
2022/09/09 07:30:31;;;;;;;;;;;16.90;99.90;;;;;;4595320;19;20249;-25
2022/09/09 07:32:04;;;;;;;;;;;16.80;99.90;;;;;;4594143;19;19927;-24
2022/09/09 07:33:35;;;;;;;;;;;16.90;99.90;;;;;;4593338;19;19918;-24
2022/09/09 07:35:08;;;;;;;;;;;16.90;99.90;;;;;;4593314;19;19952;-26
2022/09/09 07:36:39;;;;;;;;;;;16.90;99.90;;;;;;4592831;19;19922;-25
2022/09/09 07:38:12;;;;;;;;;;;16.90;99.90;;;;;;4591911;19;19931;-25
2022/09/09 07:39:43;;;;;;;;;;;16.80;99.90;;;;;;4591831;19;19946;-25
2022/09/09 07:41:16;;;;;;;;;;;16.80;99.90;;;;;;4591739;19;19919;-26
2022/09/09 07:42:47;;;;;;;;;;;16.80;99.90;;;;;;4592935;19;20336;-25
2022/09/09 07:44:21;;;;;;;;;;;16.90;99.90;;;;;;4592444;19;20338;-26
2022/09/09 07:46:02;;;;;;;;;;;16.90;99.90;;;;;;4591575;19;19919;-26
2022/09/09 07:47:35;;;;;;;;;;;16.90;99.90;;;;;;4592794;19;20233;-27
2022/09/09 07:49:08;;;;;;;;;;;16.90;99.90;;;;;;4593000;19;20252;-25
2022/09/09 07:51:00;;;;;;;;;;;16.90;99.90;;;;;;4591883;19;19915;-25
2022/09/09 07:52:31;;;;;;;;;;;16.90;99.90;;;;;;4593018;19;19930;-24
2022/09/09 07:54:03;;;;;;;;;;;16.90;99.90;;;;;;4591805;19;20332;-24
2022/09/09 07:55:34;;;;;;;;;;;17.00;99.90;;;;;;4591427;19;19941;-25
2022/09/09 07:57:05;;;;;;;;;;;17.30;99.90;;;;;;4592772;19;20349;-26
2022/09/09 07:58:37;;;;;;;;;;;17.60;99.90;;;;;;4592265;19;19915;-25
2022/09/09 08:00:08;;;;;;;;;;;17.90;99.90;;;;;;4592623;19;19918;-26
2022/09/09 08:01:39;;;;;;;;;;;18.10;99.90;;;;;;4591852;19;19919;-25
2022/09/09 08:03:11;;;;;;;;;;;18.30;99.90;;;;;;4590962;19;19918;-27
2022/09/09 08:04:42;;;;;;;;;;;18.40;99.90;;;;;;4591235;19;20233;-26
2022/09/09 08:06:13;;;;;;;;;;;18.50;99.90;;;;;;4592324;19;19926;-24
2022/09/09 08:07:46;;;;;;;;;;;18.70;99.90;;;;;;4592120;19;19915;-27
2022/09/09 08:09:19;;;;;;;;;;;18.70;99.90;;;;;;4590505;19;19915;-27
2022/09/09 08:10:52;;;;;;;;;;;18.80;99.90;;;;;;4592757;19;19911;-26
2022/09/09 08:12:27;;;;;;;;;;;18.90;99.90;;;;;;4592986;19;20324;-26
2022/09/09 08:13:59;;;;;;;;;;;18.90;99.90;;;;;;4592758;19;19919;-27
2022/09/09 08:15:32;;;;;;;;;;;19.00;99.90;;;;;;4592717;19;19937;-26
2022/09/09 08:17:03;;;;;;;;;;;19.10;99.90;;;;;;4592449;19;19922;-25
2022/09/09 08:18:34;;;;;;;;;;;19.10;99.90;;;;;;4592172;19;20253;-26
2022/09/09 08:20:07;;;;;;;;;;;19.20;99.90;;;;;;4592865;19;19919;-26
2022/09/09 08:21:39;;;;;;;;;;;19.20;99.90;;;;;;4592756;19;19923;-27
2022/09/09 08:23:11;;;;;;;;;;;19.20;99.90;;;;;;4591302;19;20352;-25
2022/09/09 08:24:44;;;;;;;;;;;19.30;99.90;;;;;;4590854;19;20316;-26
2022/09/09 08:26:22;;;;;;;;;;;19.30;99.90;;;;;;4592289;19;19915;-25
2022/09/09 08:27:55;;;;;;;;;;;19.30;99.90;;;;;;4592388;19;20003;-25
2022/09/09 08:29:28;;;;;;;;;;;19.40;99.90;;;;;;4592433;19;19923;-26
2022/09/09 08:31:06;;;;;;;;;;;19.50;99.90;;;;;;4589482;19;19922;-26
2022/09/09 08:32:37;;;;;;;;;;;19.50;99.90;;;;;;4592769;19;19944;-25
2022/09/09 08:34:09;;;;;;;;;;;19.50;99.90;;;;;;4592113;19;19922;-27
2022/09/09 08:35:40;;;;;;;;;;;19.60;99.90;;;;;;4591523;19;19998;-26
2022/09/09 08:37:11;;;;;;;;;;;19.60;99.90;;;;;;4590790;19;20003;-28
2022/09/09 08:38:42;;;;;;;;;;;19.60;99.90;;;;;;4591030;19;19911;-25
2022/09/09 08:40:18;;;;;;;;;;;19.60;99.90;;;;;;4591436;19;19923;-26
2022/09/09 08:42:11;;;;;;;;;;;19.60;99.90;;;;;;4590472;19;19929;-25
2022/09/09 08:43:43;;;;;;;;;;;19.60;99.90;;;;;;4591987;19;20404;-26
2022/09/09 08:45:35;;;;;;;;;;;19.70;99.90;;;;;;4589377;19;20283;-25
2022/09/09 08:47:10;;;;;;;;;;;19.70;99.90;;;;;;4592305;19;19919;-24
2022/09/09 08:49:01;;;;;;;;;;;19.70;99.90;;;;;;4591794;19;19923;-25
2022/09/09 08:50:38;;;;;;;;;;;19.70;99.90;;;;;;4592602;19;20378;-25
2022/09/09 08:52:13;;;;;;;;;;;19.80;99.90;;;;;;4592088;19;19921;-27
2022/09/09 08:53:51;;;;;;;;;;;19.80;99.90;;;;;;4591056;19;20367;-24
2022/09/09 08:55:33;;;;;;;;;;;19.80;99.90;;;;;;4590837;19;20396;-24
2022/09/09 08:57:15;;;;;;;;;;;19.80;99.90;;;;;;4591318;19;19915;-24
2022/09/09 08:58:57;;;;;;;;;;;19.80;99.90;;;;;;4590942;19;19925;-25
2022/09/09 09:00:46;;;;;;;;;;;19.90;99.90;;;;;;4591584;19;19946;-25
2022/09/09 09:02:40;;;;;;;;;;;19.90;99.90;;;;;;4591873;19;19950;-25
2022/09/09 09:04:25;;;;;;;;;;;19.90;99.90;;;;;;4588596;19;19945;-25
2022/09/09 09:06:23;;;;;;;;;;;20.00;99.90;;;;;;4589213;19;19919;-28
2022/09/09 09:08:35;;;;;;;;;;;20.00;99.90;;;;;;4589668;19;20360;-28
2022/09/09 09:10:13;;;;;;;;;;;20.00;99.90;;;;;;4589596;19;19935;-26
2022/09/09 09:11:52;;;;;;;;;;;20.00;99.90;;;;;;4588812;19;20329;-27
2022/09/09 09:13:47;;;;;;;;;;;20.10;99.90;;;;;;4588791;19;19919;-25
2022/09/09 09:15:36;;;;;;;;;;;20.00;99.90;;;;;;4588391;19;19915;-24
2022/09/09 09:17:12;;;;;;;;;;;20.10;99.90;;;;;;4589003;19;19919;-28
2022/09/09 09:18:45;;;;;;;;;;;20.10;99.90;;;;;;4589405;19;19922;-26
2022/09/09 09:20:18;;;;;;;;;;;20.10;99.90;;;;;;4589192;19;19915;-27
2022/09/09 09:21:51;;;;;;;;;;;20.10;99.90;;;;;;4588840;19;19922;-25
2022/09/09 09:23:27;;;;;;;;;;;20.10;99.90;;;;;;4589929;19;19915;-26
2022/09/09 09:25:00;;;;;;;;;;;20.10;99.90;;;;;;4588334;19;19938;-25
2022/09/09 09:26:38;;;;;;;;;;;20.10;99.90;;;;;;4588876;19;20018;-26
2022/09/09 09:28:17;;;;;;;;;;;20.10;99.90;;;;;;4588755;19;19922;-26
2022/09/09 09:29:49;;;;;;;;;;;20.20;99.90;;;;;;4588910;19;19947;-24
2022/09/09 09:31:20;;;;;;;;;;;20.20;99.90;;;;;;4588551;19;19979;-26
2022/09/09 09:32:54;;;;;;;;;;;20.20;99.90;;;;;;4588756;19;19974;-26
2022/09/09 09:34:25;;;;;;;;;;;20.10;99.90;;;;;;4591420;19;19918;-27
2022/09/09 09:35:56;;;;;;;;;;;20.20;99.90;;;;;;4588978;19;20000;-26
2022/09/09 09:37:30;;;;;;;;;;;20.20;99.90;;;;;;4588947;19;19926;-25
2022/09/09 09:39:01;;;;;;;;;;;20.20;99.90;;;;;;4588885;19;19921;-25
2022/09/09 09:40:33;;;;;;;;;;;20.20;99.90;;;;;;4588202;19;19930;-28
2022/09/09 09:42:10;;;;;;;;;;;20.20;99.90;;;;;;4587698;19;19958;-27
2022/09/09 09:43:48;;;;;;;;;;;20.20;99.90;;;;;;4588760;19;19915;-26
2022/09/09 09:45:44;;;;;;;;;;;20.20;99.90;;;;;;4588739;19;19922;-26
2022/09/09 09:47:19;;;;;;;;;;;20.20;99.90;;;;;;4588649;19;19911;-26
2022/09/09 09:48:57;;;;;;;;;;;20.30;99.90;;;;;;4588451;19;19923;-27
2022/09/09 09:50:28;;;;;;;;;;;20.30;99.90;;;;;;4588352;19;19925;-29
2022/09/09 09:52:02;;;;;;;;;;;20.20;99.90;;;;;;4589144;19;19932;-26
2022/09/09 09:53:34;;;;;;;;;;;20.20;99.90;;;;;;4588039;19;19918;-28
2022/09/09 09:55:07;;;;;;;;;;;20.30;99.90;;;;;;4588742;19;20017;-27
2022/09/09 09:56:38;;;;;;;;;;;20.30;99.90;;;;;;4588269;19;19944;-29
2022/09/09 09:58:13;;;;;;;;;;;20.30;99.90;;;;;;4588520;19;19907;-27
2022/09/09 09:59:44;;;;;;;;;;;20.30;99.90;;;;;;4588286;19;19919;-26
2022/09/09 10:01:29;;;;;;;;;;;20.30;99.90;;;;;;4588190;19;19942;-27
2022/09/09 10:03:14;;;;;;;;;;;20.30;99.90;;;;;;4587597;19;20305;-29
2022/09/09 10:05:01;;;;;;;;;;;20.30;99.90;;;;;;4586771;19;19970;-25
2022/09/09 10:06:34;;;;;;;;;;;20.30;99.90;;;;;;4588011;19;19996;-26
2022/09/09 10:08:11;;;;;;;;;;;20.30;99.90;;;;;;4587845;19;19915;-26
2022/09/09 10:09:42;;;;;;;;;;;20.30;99.90;;;;;;4586821;19;20333;-27
2022/09/09 10:11:15;;;;;;;;;;;20.30;99.90;;;;;;4588251;19;20325;-27
2022/09/09 10:13:00;;;;;;;;;;;20.30;99.90;;;;;;4588636;19;19919;-27
2022/09/09 10:14:43;;;;;;;;;;;20.30;99.90;;;;;;4587986;19;19922;-27
2022/09/09 10:16:23;;;;;;;;;;;20.30;99.90;;;;;;4588626;19;19926;-27
2022/09/09 10:17:58;;;;;;;;;;;20.30;99.90;;;;;;4587961;19;19914;-28
2022/09/09 10:19:31;;;;;;;;;;;20.30;99.90;;;;;;4587734;19;19915;-27
2022/09/09 10:21:06;;;;;;;;;;;20.30;99.90;;;;;;4587922;19;19922;-27
2022/09/09 10:22:38;;;;;;;;;;;20.30;99.90;;;;;;4587653;19;19926;-27
2022/09/09 10:24:23;;;;;;;;;;;20.40;99.90;;;;;;4589742;19;19923;-27
2022/09/09 10:26:16;;;;;;;;;;;20.40;99.90;;;;;;4587719;19;19934;-26
2022/09/09 10:27:54;;;;;;;;;;;20.40;99.90;;;;;;4587558;19;20390;-27
2022/09/09 10:29:28;;;;;;;;;;;20.30;99.90;;;;;;4587596;19;19911;-25
2022/09/09 10:31:07;;;;;;;;;;;20.30;99.90;;;;;;4587028;19;19978;-25
2022/09/09 10:32:41;;;;;;;;;;;20.30;99.90;;;;;;4587026;19;19918;-26
2022/09/09 10:34:20;;;;;;;;;;;20.30;99.90;;;;;;4587831;19;19914;-25
2022/09/09 10:35:52;;;;;;;;;;;20.20;99.90;;;;;;4588505;19;19927;-24
2022/09/09 10:37:37;;;;;;;;;;;20.30;99.90;;;;;;4589727;19;20337;-25
2022/09/09 10:39:31;;;;;;;;;;;20.30;99.90;;;;;;4588617;19;19914;-25
2022/09/09 10:41:12;;;;;;;;;;;20.30;99.90;;;;;;4589777;19;19926;-25
2022/09/09 10:42:44;;;;;;;;;;;20.30;99.90;;;;;;4588267;19;19971;-25
2022/09/09 10:44:18;;;;;;;;;;;20.30;99.90;;;;;;4589225;19;20263;-25
2022/09/09 10:46:06;;;;;;;;;;;20.30;99.90;;;;;;4589093;19;19944;-24
2022/09/09 10:47:50;;;;;;;;;;;20.30;99.90;;;;;;4589133;19;19922;-24
2022/09/09 10:49:49;;;;;;;;;;;20.30;99.90;;;;;;4588574;19;19956;-24
2022/09/09 10:51:26;;;;;;;;;;;20.30;99.90;;;;;;4589860;19;19971;-25
2022/09/09 10:52:57;;;;;;;;;;;20.40;99.90;;;;;;4589698;19;20324;-25